createdAt,value
2023-03-06T00:01:58.675Z,79.09
2023-03-06T00:05:26.740Z,79.67
2023-03-06T00:08:56.502Z,78.19
2023-03-06T00:12:24.387Z,77.95
2023-03-06T00:15:52.738Z,77.64
2023-03-06T00:18:43.874Z,78.20
2023-03-06T00:22:11.720Z,78.85
2023-03-06T00:24:40.357Z,78.74
2023-03-06T00:28:08.544Z,78.64
2023-03-06T00:31:36.509Z,78.37
2023-03-06T00:34:25.704Z,77.77
2023-03-06T00:37:54.292Z,77.57
2023-03-06T00:41:22.652Z,77.71
2023-03-06T00:44:51.125Z,77.09
2023-03-06T00:48:19.252Z,76.17
2023-03-06T00:51:47.378Z,77.70
2023-03-06T00:54:55.876Z,77.70
2023-03-06T00:58:25.175Z,78.62
2023-03-06T01:01:53.743Z,77.58
2023-03-06T01:05:09.992Z,79.32
2023-03-06T01:08:39.114Z,80.13
2023-03-06T01:11:48.036Z,80.49
2023-03-06T01:15:16.370Z,80.01
2023-03-06T01:18:44.593Z,79.70
2023-03-06T01:22:12.700Z,79.77
2023-03-06T01:25:22.858Z,79.20
2023-03-06T01:28:11.959Z,78.64
2023-03-06T01:31:40.011Z,78.62
2023-03-06T01:35:08.722Z,79.19
2023-03-06T01:38:36.952Z,76.58
2023-03-06T01:42:04.868Z,74.64
2023-03-06T01:45:01.123Z,76.16
2023-03-06T01:48:29.338Z,74.58
2023-03-06T01:51:38.064Z,73.94
2023-03-06T01:55:06.311Z,72.62
2023-03-06T01:58:34.781Z,72.42
2023-03-06T02:02:04.222Z,74.21
2023-03-06T02:05:33.708Z,75.75
2023-03-06T02:09:01.716Z,72.87
2023-03-06T02:12:30.091Z,71.38
2023-03-06T02:15:59.067Z,70.07
2023-03-06T02:19:07.091Z,71.57
2023-03-06T02:22:16.472Z,72.00
2023-03-06T02:25:44.423Z,72.05
2023-03-06T02:29:12.528Z,72.40
2023-03-06T02:32:40.542Z,75.25
2023-03-06T02:36:09.813Z,71.49
2023-03-06T02:39:19.337Z,74.99
2023-03-06T02:42:47.401Z,74.77
2023-03-06T02:46:15.274Z,74.19
2023-03-06T02:49:03.995Z,74.01
2023-03-06T02:52:32.134Z,73.51
2023-03-06T02:56:00.609Z,75.03
2023-03-06T02:59:10.615Z,74.60
2023-03-06T03:02:20.216Z,74.89
2023-03-06T03:05:48.170Z,74.37
2023-03-06T03:09:16.585Z,74.17
2023-03-06T03:12:48.937Z,72.49
2023-03-06T03:16:03.173Z,72.07
2023-03-06T03:19:12.100Z,70.05
2023-03-06T03:22:39.832Z,69.28
2023-03-06T03:26:07.731Z,67.08
2023-03-06T03:29:16.451Z,68.60
2023-03-06T03:32:25.098Z,68.44
2023-03-06T03:35:52.961Z,68.79
2023-03-06T03:39:21.186Z,69.16
2023-03-06T03:42:49.314Z,71.77
2023-03-06T03:46:17.628Z,77.09
2023-03-06T03:49:45.708Z,79.54
2023-03-06T03:53:13.472Z,82.05
2023-03-06T03:56:41.441Z,82.88
2023-03-06T04:00:09.425Z,83.31
2023-03-06T04:03:37.564Z,82.00
2023-03-06T04:07:05.568Z,81.59
2023-03-06T04:10:14.162Z,83.69
2023-03-06T04:13:42.143Z,83.07
2023-03-06T04:17:10.234Z,82.92
2023-03-06T04:20:39.150Z,79.94
2023-03-06T04:24:07.005Z,80.71
2023-03-06T04:27:34.947Z,79.97
2023-03-06T04:30:43.869Z,79.57
2023-03-06T04:33:52.837Z,80.07
2023-03-06T04:37:20.703Z,80.04
2023-03-06T04:40:48.519Z,79.25
2023-03-06T04:43:57.029Z,80.11
2023-03-06T04:47:05.470Z,81.02
2023-03-06T04:50:38.859Z,82.79
2023-03-06T04:54:06.806Z,82.43
2023-03-06T04:57:34.873Z,81.68
2023-03-06T05:01:02.972Z,82.10
2023-03-06T05:04:30.577Z,83.22
2023-03-06T05:07:58.333Z,82.05
2023-03-06T05:11:25.959Z,83.05
2023-03-06T05:14:54.259Z,83.69
2023-03-06T05:18:02.088Z,82.57
2023-03-06T05:21:30.207Z,83.45
2023-03-06T05:24:57.992Z,83.07
2023-03-06T05:28:25.930Z,82.64
2023-03-06T05:31:53.910Z,82.65
2023-03-06T05:35:21.809Z,83.59
2023-03-06T05:38:49.827Z,83.04
2023-03-06T05:42:17.978Z,84.30
2023-03-06T05:45:45.961Z,83.73
2023-03-06T05:49:14.048Z,83.01
2023-03-06T05:52:42.104Z,83.02
2023-03-06T05:55:51.077Z,84.19
2023-03-06T05:58:59.642Z,82.22
2023-03-06T06:02:27.806Z,81.32
2023-03-06T06:05:55.691Z,80.55
2023-03-06T06:09:23.643Z,80.79
2023-03-06T06:12:51.668Z,82.02
2023-03-06T06:16:19.794Z,81.36
2023-03-06T06:19:47.656Z,81.41
2023-03-06T06:23:15.640Z,82.56
2023-03-06T06:26:43.314Z,83.83
2023-03-06T06:30:11.362Z,84.78
2023-03-06T06:33:34.919Z,84.05
2023-03-06T06:40:23.818Z,83.51
2023-03-06T06:43:51.737Z,82.54
2023-03-06T06:47:25.426Z,82.20
2023-03-06T06:50:17.407Z,80.87
2023-03-06T06:53:45.239Z,79.84
2023-03-06T06:57:13.274Z,79.57
2023-03-06T07:00:21.679Z,79.76
2023-03-06T07:03:49.675Z,79.69
2023-03-06T07:07:17.464Z,79.54
2023-03-06T07:10:07.825Z,80.11
2023-03-06T07:13:35.634Z,78.55
2023-03-06T07:16:30.130Z,77.80
2023-03-06T07:19:46.067Z,77.64
2023-03-06T07:22:49.994Z,76.67
2023-03-06T07:26:03.998Z,76.29
2023-03-06T07:29:31.646Z,75.76
2023-03-06T07:32:59.905Z,74.93
2023-03-06T07:35:48.708Z,74.55
2023-03-06T07:38:58.024Z,72.67
2023-03-06T07:42:25.874Z,72.01
2023-03-06T07:45:53.606Z,71.46
2023-03-06T07:48:23.321Z,70.75
2023-03-06T07:51:51.021Z,68.84
2023-03-06T07:58:23.638Z,68.60
2023-03-06T08:01:14.785Z,67.79
2023-03-06T08:04:32.770Z,67.34
2023-03-06T08:08:00.666Z,68.06
2023-03-06T08:11:08.801Z,67.60
2023-03-06T08:14:16.690Z,67.49
2023-03-06T08:17:26.032Z,66.26
2023-03-06T08:20:54.177Z,65.38
2023-03-06T08:24:22.152Z,65.17
2023-03-06T08:27:50.256Z,64.30
2023-03-06T08:31:06.383Z,65.00
2023-03-06T08:34:34.247Z,64.52
2023-03-06T08:37:44.328Z,65.17
2023-03-06T08:41:12.016Z,65.92
2023-03-06T08:44:39.778Z,66.08
2023-03-06T08:48:07.774Z,66.05
2023-03-06T08:51:35.930Z,64.70
2023-03-06T08:54:59.898Z,63.36
2023-03-06T08:58:27.748Z,62.53
2023-03-06T09:01:55.637Z,61.86
2023-03-06T09:05:24.167Z,60.71
2023-03-06T09:08:52.057Z,59.93
2023-03-06T09:12:00.876Z,59.87
2023-03-06T09:15:28.974Z,62.51
2023-03-06T09:18:56.771Z,61.44
2023-03-06T09:22:24.687Z,60.15
2023-03-06T09:25:53.000Z,60.08
2023-03-06T09:29:01.925Z,58.20
2023-03-06T09:32:30.125Z,54.60
2023-03-06T09:35:58.081Z,54.32
2023-03-06T09:39:26.281Z,52.17
2023-03-06T09:42:54.286Z,53.94
2023-03-06T09:46:22.265Z,54.28
2023-03-06T09:49:12.446Z,51.77
2023-03-06T09:52:06.728Z,51.03
2023-03-06T09:55:34.758Z,51.78
2023-03-06T09:59:02.743Z,49.36
2023-03-06T10:02:30.904Z,48.48
2023-03-06T10:06:00.363Z,46.48
2023-03-06T10:09:26.724Z,46.34
2023-03-06T10:12:54.560Z,43.58
2023-03-06T10:16:22.368Z,44.03
2023-03-06T10:19:50.369Z,42.85
2023-03-06T10:23:18.339Z,41.98
2023-03-06T10:26:26.468Z,42.62
2023-03-06T10:30:02.790Z,41.46
2023-03-06T10:33:22.549Z,40.86
2023-03-06T10:36:30.862Z,40.74
2023-03-06T10:39:58.758Z,39.59
2023-03-06T10:43:26.712Z,38.35
2023-03-06T10:46:54.724Z,38.79
2023-03-06T10:50:23.203Z,38.78
2023-03-06T10:53:31.020Z,38.76
2023-03-06T10:56:58.967Z,39.44
2023-03-06T11:00:26.720Z,39.53
2023-03-06T11:03:16.011Z,39.58
2023-03-06T11:06:44.024Z,39.34
2023-03-06T11:10:12.129Z,39.19
2023-03-06T11:13:40.386Z,38.50
2023-03-06T11:17:08.151Z,38.49
2023-03-06T11:19:57.682Z,38.09
2023-03-06T11:23:06.088Z,38.36
2023-03-06T11:26:14.062Z,38.00
2023-03-06T11:29:42.179Z,37.61
2023-03-06T11:33:11.170Z,36.58
2023-03-06T11:36:39.366Z,36.85
2023-03-06T11:40:08.097Z,35.56
2023-03-06T11:43:36.436Z,35.75
2023-03-06T11:47:04.476Z,35.80
2023-03-06T11:50:32.397Z,35.28
2023-03-06T11:54:00.354Z,35.29
2023-03-06T11:57:28.267Z,34.62
2023-03-06T12:00:56.017Z,33.56
2023-03-06T12:04:25.125Z,33.50
2023-03-06T12:07:52.977Z,33.76
2023-03-06T12:11:21.284Z,34.16
2023-03-06T12:14:49.086Z,32.77
2023-03-06T12:17:57.835Z,33.65
2023-03-06T12:20:48.093Z,33.83
2023-03-06T12:24:16.286Z,33.41
2023-03-06T12:27:28.706Z,32.84
2023-03-06T12:30:56.638Z,33.12
2023-03-06T12:34:24.612Z,32.41
2023-03-06T12:37:33.107Z,32.46
2023-03-06T12:41:01.067Z,32.61
2023-03-06T12:44:28.771Z,31.57
2023-03-06T12:47:56.511Z,31.52
2023-03-06T12:51:24.910Z,31.29
2023-03-06T12:54:53.111Z,31.76
2023-03-06T12:58:21.039Z,31.60
2023-03-06T13:01:49.263Z,32.37
2023-03-06T13:05:17.559Z,32.36
2023-03-06T13:08:46.358Z,32.48
2023-03-06T13:12:14.865Z,32.90
2023-03-06T13:15:04.882Z,32.73
2023-03-06T13:18:13.817Z,32.58
2023-03-06T13:21:41.772Z,33.03
2023-03-06T13:25:09.722Z,32.56
2023-03-06T13:28:38.892Z,32.71
2023-03-06T13:31:47.869Z,32.48
2023-03-06T13:34:56.731Z,32.75
2023-03-06T13:37:45.384Z,33.52
2023-03-06T13:41:13.332Z,33.55
2023-03-06T13:44:45.143Z,34.21
2023-03-06T13:48:21.184Z,34.95
2023-03-06T13:51:21.253Z,35.82
2023-03-06T13:54:49.513Z,36.11
2023-03-06T13:58:17.624Z,36.13
2023-03-06T14:01:26.424Z,36.76
2023-03-06T14:04:24.837Z,37.04
2023-03-06T14:07:53.059Z,37.63
2023-03-06T14:11:21.031Z,37.82
2023-03-06T14:13:51.837Z,38.08
2023-03-06T14:17:19.751Z,38.26
2023-03-06T14:20:47.813Z,37.78
2023-03-06T14:24:15.942Z,36.98
2023-03-06T14:27:23.963Z,36.82
2023-03-06T14:30:33.912Z,37.01
2023-03-06T14:33:42.956Z,37.08
2023-03-06T14:37:11.007Z,37.11
2023-03-06T14:40:38.989Z,38.11
2023-03-06T14:43:46.834Z,37.57
2023-03-06T14:46:54.973Z,38.07
2023-03-06T14:49:51.535Z,37.51
2023-03-06T14:53:19.434Z,37.56
2023-03-06T14:56:27.519Z,37.53
2023-03-06T14:59:55.509Z,37.86
2023-03-06T15:03:23.360Z,38.37
2023-03-06T15:06:32.261Z,38.69
2023-03-06T15:10:01.334Z,38.96
2023-03-06T15:13:29.254Z,39.94
2023-03-06T15:16:57.206Z,40.48
2023-03-06T15:20:25.205Z,40.33
2023-03-06T15:23:52.907Z,40.62
2023-03-06T15:27:01.720Z,41.03
2023-03-06T15:30:29.784Z,41.61
2023-03-06T15:33:57.759Z,42.20
2023-03-06T15:37:25.813Z,42.38
2023-03-06T15:40:53.747Z,42.29
2023-03-06T15:43:42.755Z,42.84
2023-03-06T15:47:10.767Z,43.48
2023-03-06T15:50:38.805Z,44.20
2023-03-06T15:54:12.229Z,44.01
2023-03-06T15:57:35.042Z,44.38
2023-03-06T16:01:03.194Z,44.49
2023-03-06T16:04:30.884Z,44.47
2023-03-06T16:07:58.688Z,44.88
2023-03-06T16:11:32.495Z,45.11
2023-03-06T16:14:54.738Z,45.42
2023-03-06T16:18:22.584Z,45.64
2023-03-06T16:21:50.636Z,45.94
2023-03-06T16:25:18.626Z,46.17
2023-03-06T16:28:48.183Z,46.77
2023-03-06T16:32:16.283Z,47.10
2023-03-06T16:35:45.972Z,47.59
2023-03-06T16:39:14.678Z,47.77
2023-03-06T16:42:42.553Z,48.21
2023-03-06T16:46:11.402Z,48.51
2023-03-06T16:49:39.217Z,48.89
2023-03-06T16:53:07.077Z,49.22
2023-03-06T16:56:34.982Z,49.66
2023-03-06T17:00:02.914Z,50.07
2023-03-06T17:03:31.221Z,50.14
2023-03-06T17:06:59.394Z,50.87
2023-03-06T17:10:27.355Z,51.27
2023-03-06T17:13:55.446Z,51.99
2023-03-06T17:17:23.560Z,51.81
2023-03-06T17:20:51.557Z,52.10
2023-03-06T17:24:19.477Z,52.37
2023-03-06T17:27:47.440Z,52.76
2023-03-06T17:31:15.315Z,52.50
2023-03-06T17:34:43.469Z,52.62
2023-03-06T17:38:11.405Z,53.76
2023-03-06T17:41:39.792Z,53.74
2023-03-06T17:45:07.854Z,53.92
2023-03-06T17:48:35.779Z,55.14
2023-03-06T17:52:04.079Z,55.14
2023-03-06T17:55:31.922Z,54.54
2023-03-06T17:58:59.707Z,54.59
2023-03-06T18:02:27.654Z,54.52
2023-03-06T18:05:55.987Z,54.42
2023-03-06T18:09:04.597Z,54.58
2023-03-06T18:12:32.730Z,54.02
2023-03-06T18:16:01.109Z,54.34
2023-03-06T18:19:28.922Z,53.55
2023-03-06T18:22:56.915Z,53.41
2023-03-06T18:26:25.253Z,53.17
2023-03-06T18:29:53.275Z,52.94
2023-03-06T18:33:21.142Z,52.87
2023-03-06T18:36:49.473Z,52.91
2023-03-06T18:40:18.578Z,52.57
2023-03-06T18:43:46.446Z,52.27
2023-03-06T18:47:14.507Z,54.45
2023-03-06T18:50:42.701Z,54.75
2023-03-06T18:54:11.022Z,55.11
2023-03-06T18:57:39.264Z,55.64
2023-03-06T19:01:07.220Z,57.87
2023-03-06T19:04:35.342Z,59.40
2023-03-06T19:08:03.411Z,59.69
2023-03-06T19:11:31.351Z,59.22
2023-03-06T19:14:59.475Z,60.46
2023-03-06T19:18:27.653Z,59.85
2023-03-06T19:21:55.560Z,59.78
2023-03-06T19:25:23.575Z,59.58
2023-03-06T19:28:51.828Z,58.75
2023-03-06T19:32:20.037Z,58.76
2023-03-06T19:35:48.405Z,58.42
2023-03-06T19:39:16.557Z,60.11
2023-03-06T19:42:44.291Z,62.67
2023-03-06T19:46:12.408Z,65.53
2023-03-06T19:49:40.207Z,68.16
2023-03-06T19:53:08.103Z,67.53
2023-03-06T19:56:36.716Z,70.91
2023-03-06T19:59:45.497Z,70.95
2023-03-06T20:03:00.979Z,73.84
2023-03-06T20:06:29.015Z,72.85
2023-03-06T20:09:57.216Z,71.78
2023-03-06T20:13:25.156Z,76.32
2023-03-06T20:16:34.665Z,81.00
2023-03-06T20:20:02.405Z,85.79
2023-03-06T20:23:30.740Z,86.00
2023-03-06T20:26:58.672Z,87.40
2023-03-06T20:30:31.548Z,87.66
2023-03-06T20:33:54.282Z,88.74
2023-03-06T20:37:03.218Z,89.12
2023-03-06T20:40:31.273Z,89.50
2023-03-06T20:43:59.118Z,90.28
2023-03-06T20:47:26.836Z,89.63
2023-03-06T20:50:15.564Z,89.64
2023-03-06T20:53:43.436Z,90.53
2023-03-06T20:57:11.492Z,91.51
2023-03-06T21:00:39.480Z,95.15
2023-03-06T21:04:07.266Z,97.12
2023-03-06T21:07:35.456Z,96.76
2023-03-06T21:11:03.380Z,99.54
2023-03-06T21:14:31.390Z,100.00
2023-03-06T21:17:59.255Z,100.00
2023-03-06T21:21:27.428Z,100.00
2023-03-06T21:24:55.355Z,100.00
2023-03-06T21:28:23.322Z,100.00
2023-03-06T21:31:35.425Z,100.00
2023-03-06T21:35:03.420Z,100.00
2023-03-06T21:38:31.451Z,100.00
2023-03-06T21:41:59.535Z,100.00
2023-03-06T21:45:08.363Z,100.00
2023-03-06T21:48:36.575Z,100.00
2023-03-06T21:52:04.680Z,100.00
2023-03-06T21:55:14.823Z,100.00
2023-03-06T21:58:42.832Z,100.00
2023-03-06T22:02:10.754Z,100.00
2023-03-06T22:05:38.794Z,100.00
2023-03-06T22:09:06.558Z,100.00
2023-03-06T22:12:34.923Z,100.00
2023-03-06T22:16:02.842Z,100.00
2023-03-06T22:19:30.682Z,100.00
2023-03-06T22:22:20.913Z,100.00
2023-03-06T22:25:48.901Z,100.00
2023-03-06T22:29:16.728Z,100.00
2023-03-06T22:32:45.303Z,100.00
2023-03-06T22:36:13.111Z,100.00
2023-03-06T22:39:40.905Z,100.00
2023-03-06T22:43:08.689Z,100.00
2023-03-06T22:46:36.621Z,100.00
2023-03-06T22:49:45.092Z,100.00
2023-03-06T22:53:13.052Z,100.00
2023-03-06T22:56:41.156Z,100.00
2023-03-06T23:00:09.826Z,100.00
2023-03-06T23:03:17.654Z,100.00
2023-03-06T23:06:45.420Z,100.00
2023-03-06T23:10:13.527Z,100.00
2023-03-06T23:13:40.525Z,100.00
2023-03-06T23:17:08.044Z,100.00
2023-03-06T23:20:34.720Z,100.00
2023-03-06T23:24:01.281Z,100.00
2023-03-06T23:27:30.554Z,100.00
2023-03-06T23:30:58.465Z,100.00
2023-03-06T23:34:26.478Z,100.00
2023-03-06T23:37:54.447Z,100.00
2023-03-06T23:41:22.432Z,100.00
2023-03-06T23:44:50.490Z,100.00
2023-03-06T23:48:18.960Z,100.00
2023-03-06T23:51:47.084Z,100.00
2023-03-06T23:55:14.897Z,100.00
2023-03-06T23:58:43.058Z,100.00
